EmailTwitter


Observations de surface / Québec / EGKB

Régions: Québec | Canada | États-Unis | Europe | France | UK | Ailleurs
Station
Affichage
Infos & localisation pour EGKB | Aide pour décoder les METARs

Observations prises le 2017-09-19 à 12H50 UTC à BIGGIN HILL, UK (EGKB)

Etat du ciel: ciel variable.

Température: 14.0 Celsius

Point de rosée: 9.0 Celsius

Humidité relative: 72%

Vents: Nord-ouest à 7 km/h ou 4 noeuds.

Pression au niveau moyen de la mer: 102.20 kilopascals.

Visibilité horizontale: 6.21 milles terrestres ou 9.94 kilomètres.

Observation METAR:

EGKB 191250Z 30004KT 250V010 9999 SCT030 14/09 Q1022=